createdAt,value
2022-10-31T00:01:29.033Z,101329.53
2022-10-31T00:03:57.376Z,101323.28
2022-10-31T00:06:25.961Z,101321.25
2022-10-31T00:08:59.670Z,101330.53
2022-10-31T00:11:28.612Z,101326.69
2022-10-31T00:13:58.101Z,101330.25
2022-10-31T00:16:27.974Z,101330.91
2022-10-31T00:18:58.378Z,101329.59
2022-10-31T00:21:27.222Z,101321.47
2022-10-31T00:23:55.521Z,101327.06
2022-10-31T00:26:24.782Z,101339.09
2022-10-31T00:28:52.928Z,101338.47
2022-10-31T00:31:23.812Z,101331.88
2022-10-31T00:34:00.204Z,101346.63
2022-10-31T00:36:28.717Z,101343.19
2022-10-31T00:39:01.221Z,101353.59
2022-10-31T00:41:30.747Z,101370.06
2022-10-31T00:44:03.645Z,101345.72
2022-10-31T00:46:32.095Z,101353.81
2022-10-31T00:49:00.168Z,101362.09
2022-10-31T00:51:28.535Z,101362.56
2022-10-31T00:53:56.516Z,101373.47
2022-10-31T00:56:24.810Z,101375.75
2022-10-31T00:58:56.850Z,101367.81
2022-10-31T01:01:25.129Z,101367.44
2022-10-31T01:03:57.414Z,101363.59
2022-10-31T01:06:25.434Z,101366.78
2022-10-31T01:08:57.044Z,101367.50
2022-10-31T01:11:28.565Z,101372.47
2022-10-31T01:13:57.904Z,101371.31
2022-10-31T01:16:28.041Z,101377.88
2022-10-31T01:18:58.347Z,101386.53
2022-10-31T01:21:30.677Z,101375.84
2022-10-31T01:24:03.001Z,101385.00
2022-10-31T01:26:32.463Z,101382.47
2022-10-31T01:29:03.180Z,101385.75
2022-10-31T01:31:36.539Z,101390.22
2022-10-31T01:34:05.013Z,101385.75
2022-10-31T01:36:34.717Z,101392.22
2022-10-31T01:39:05.305Z,101381.81
2022-10-31T01:41:39.503Z,101389.28
2022-10-31T01:44:43.175Z,101386.59
2022-10-31T01:47:17.653Z,101403.19
2022-10-31T01:49:55.341Z,101389.47
2022-10-31T01:52:27.465Z,101394.28
2022-10-31T01:55:03.066Z,101386.16
2022-10-31T01:57:33.443Z,101394.53
2022-10-31T02:00:04.293Z,101396.91
2022-10-31T02:02:43.064Z,101408.69
2022-10-31T02:05:24.993Z,101395.59
2022-10-31T02:07:58.241Z,101407.25
2022-10-31T02:10:32.629Z,101400.00
2022-10-31T02:13:04.016Z,101397.59
2022-10-31T02:15:34.073Z,101402.41
2022-10-31T02:18:03.627Z,101404.81
2022-10-31T02:20:35.164Z,101403.91
2022-10-31T02:23:41.665Z,101402.75
2022-10-31T02:26:34.812Z,101404.84
2022-10-31T02:29:38.529Z,101400.38
2022-10-31T02:32:13.381Z,101401.91
2022-10-31T02:34:52.757Z,101401.63
2022-10-31T02:37:27.868Z,101401.38
2022-10-31T02:40:04.532Z,101398.53
2022-10-31T02:43:07.484Z,101399.91
2022-10-31T02:45:41.257Z,101409.78
2022-10-31T02:48:14.371Z,101406.94
2022-10-31T02:50:45.398Z,101400.59
2022-10-31T02:53:18.394Z,101397.06
2022-10-31T02:55:56.965Z,101407.75
2022-10-31T02:58:28.076Z,101409.44
2022-10-31T03:01:24.131Z,101409.25
2022-10-31T03:04:07.926Z,101400.38
2022-10-31T03:06:43.106Z,101402.75
2022-10-31T03:09:20.102Z,101406.31
2022-10-31T03:11:55.131Z,101412.25
2022-10-31T03:14:30.371Z,101415.28
2022-10-31T03:17:04.146Z,101414.25
2022-10-31T03:19:44.019Z,101421.66
2022-10-31T03:22:18.768Z,101409.63
2022-10-31T03:24:48.806Z,101418.72
2022-10-31T03:27:21.057Z,101426.19
2022-10-31T03:29:55.971Z,101423.34
2022-10-31T03:32:28.293Z,101422.19
2022-10-31T03:35:01.426Z,101426.22
2022-10-31T03:37:34.737Z,101432.03
2022-10-31T03:40:09.911Z,101425.81
2022-10-31T03:42:42.608Z,101435.75
2022-10-31T03:45:31.460Z,101445.03
2022-10-31T03:48:01.249Z,101438.75
2022-10-31T03:50:41.173Z,101448.88
2022-10-31T03:53:18.951Z,101443.69
2022-10-31T03:56:03.531Z,101448.75
2022-10-31T03:58:38.279Z,101448.47
2022-10-31T04:01:08.749Z,101453.41
2022-10-31T04:03:39.718Z,101445.50
2022-10-31T04:06:18.971Z,101451.31
2022-10-31T04:08:53.400Z,101459.50
2022-10-31T04:11:25.798Z,101458.47
2022-10-31T04:14:14.321Z,101465.03
2022-10-31T04:16:45.807Z,101464.75
2022-10-31T04:19:17.438Z,101460.88
2022-10-31T04:21:46.711Z,101461.63
2022-10-31T04:24:14.577Z,101463.72
2022-10-31T04:26:50.341Z,101470.25
2022-10-31T04:29:20.713Z,101474.28
2022-10-31T04:31:48.601Z,101473.25
2022-10-31T04:34:16.561Z,101483.38
2022-10-31T04:36:48.992Z,101478.31
2022-10-31T04:39:22.657Z,101469.72
2022-10-31T04:42:16.394Z,101470.59
2022-10-31T04:44:44.156Z,101474.78
2022-10-31T04:47:12.036Z,101468.69
2022-10-31T04:49:39.882Z,101472.97
2022-10-31T04:52:12.045Z,101474.59
2022-10-31T04:54:40.101Z,101469.41
2022-10-31T04:57:29.375Z,101466.72
2022-10-31T04:59:57.283Z,101469.13
2022-10-31T05:02:30.645Z,101470.47
2022-10-31T05:05:00.163Z,101462.56
2022-10-31T05:07:29.493Z,101458.28
2022-10-31T05:09:57.318Z,101463.16
2022-10-31T05:12:25.296Z,101465.56
2022-10-31T05:15:17.002Z,101468.25
2022-10-31T05:18:04.459Z,101459.91
2022-10-31T05:20:58.196Z,101449.97
2022-10-31T05:23:32.019Z,101459.47
2022-10-31T05:26:01.192Z,101462.59
2022-10-31T05:28:29.195Z,101458.13
2022-10-31T05:30:57.004Z,101457.25
2022-10-31T05:33:24.901Z,101460.38
2022-10-31T05:36:11.170Z,101460.38
2022-10-31T05:39:01.898Z,101460.81
2022-10-31T05:41:36.704Z,101469.16
2022-10-31T05:44:14.888Z,101462.31
2022-10-31T05:47:11.553Z,101467.09
2022-10-31T05:50:15.097Z,101463.50
2022-10-31T05:53:05.837Z,101477.50
2022-10-31T05:55:42.821Z,101480.16
2022-10-31T05:58:14.076Z,101474.34
2022-10-31T06:00:49.246Z,101476.16
2022-10-31T06:03:17.436Z,101472.13
2022-10-31T06:06:11.050Z,101474.03
2022-10-31T06:08:42.596Z,101475.69
2022-10-31T06:11:22.290Z,101470.66
2022-10-31T06:14:10.494Z,101469.28
2022-10-31T06:16:46.565Z,101467.66
2022-10-31T06:19:34.643Z,101471.81
2022-10-31T06:22:02.423Z,101466.75
2022-10-31T06:24:30.903Z,101466.47
2022-10-31T06:27:09.786Z,101464.09
2022-10-31T06:29:43.754Z,101462.47
2022-10-31T06:32:16.300Z,101477.19
2022-10-31T06:34:49.027Z,101471.81
2022-10-31T06:37:17.700Z,101478.38
2022-10-31T06:39:48.699Z,101484.63
2022-10-31T06:42:19.335Z,101477.78
2022-10-31T06:44:47.634Z,101480.31
2022-10-31T06:47:38.056Z,101488.78
2022-10-31T06:50:18.456Z,101486.84
2022-10-31T06:52:52.400Z,101495.78
2022-10-31T06:55:25.514Z,101496.81
2022-10-31T06:57:57.668Z,101502.16
2022-10-31T07:00:32.285Z,101502.47
2022-10-31T07:03:07.888Z,101512.59
2022-10-31T07:05:36.662Z,101510.06
2022-10-31T07:08:06.373Z,101508.56
2022-10-31T07:10:40.049Z,101509.91
2022-10-31T07:13:13.921Z,101520.78
2022-10-31T07:15:46.421Z,101518.53
2022-10-31T07:18:14.874Z,101516.28
2022-10-31T07:20:45.918Z,101529.25
2022-10-31T07:23:16.779Z,101532.81
2022-10-31T07:25:50.977Z,101535.63
2022-10-31T07:28:26.814Z,101534.88
2022-10-31T07:30:56.460Z,101530.69
2022-10-31T07:33:26.679Z,101534.13
2022-10-31T07:36:16.557Z,101524.78
2022-10-31T07:38:46.586Z,101525.34
2022-10-31T07:41:15.143Z,101534.56
2022-10-31T07:46:44.786Z,101533.53
2022-10-31T07:49:49.954Z,101544.25
2022-10-31T07:52:28.284Z,101543.63
2022-10-31T07:55:15.729Z,101527.97
2022-10-31T07:57:53.270Z,101526.47
2022-10-31T08:00:22.545Z,101530.97
2022-10-31T08:02:59.300Z,101533.75
2022-10-31T08:05:46.926Z,101527.97
2022-10-31T08:08:41.051Z,101530.06
2022-10-31T08:11:15.503Z,101526.31
2022-10-31T08:13:44.768Z,101524.94
2022-10-31T08:16:17.129Z,101526.13
2022-10-31T08:19:18.265Z,101526.44
2022-10-31T08:21:55.876Z,101532.66
2022-10-31T08:24:25.975Z,101533.69
2022-10-31T08:26:55.776Z,101532.22
2022-10-31T08:29:23.597Z,101534.91
2022-10-31T08:32:01.501Z,101532.06
2022-10-31T08:35:04.675Z,101520.69
2022-10-31T08:37:54.371Z,101521.28
2022-10-31T08:40:22.425Z,101520.09
2022-10-31T08:42:58.557Z,101520.78
2022-10-31T08:45:30.579Z,101508.13
2022-10-31T08:48:01.681Z,101508.31
2022-10-31T08:50:31.496Z,101505.00
2022-10-31T08:53:05.970Z,101503.44
2022-10-31T08:55:36.156Z,101501.00
2022-10-31T08:58:07.375Z,101492.88
2022-10-31T09:00:45.922Z,101492.72
2022-10-31T09:03:23.581Z,101489.34
2022-10-31T09:05:59.423Z,101488.38
2022-10-31T09:08:30.752Z,101494.88
2022-10-31T09:10:59.202Z,101491.66
2022-10-31T09:13:54.329Z,101493.34
2022-10-31T09:16:40.681Z,101497.56
2022-10-31T09:19:16.532Z,101494.13
2022-10-31T09:21:47.392Z,101490.81
2022-10-31T09:24:15.778Z,101497.72
2022-10-31T09:26:44.297Z,101500.81
2022-10-31T09:29:18.648Z,101497.53
2022-10-31T09:31:50.301Z,101509.00
2022-10-31T09:34:33.337Z,101508.16
2022-10-31T09:37:10.619Z,101506.38
2022-10-31T09:39:38.680Z,101505.97
2022-10-31T09:42:43.741Z,101506.75
2022-10-31T09:45:23.390Z,101492.91
2022-10-31T09:48:08.443Z,101485.44
2022-10-31T09:50:43.949Z,101495.84
2022-10-31T09:53:35.175Z,101497.88
2022-10-31T09:56:06.874Z,101488.47
2022-10-31T09:58:39.580Z,101490.25
2022-10-31T10:01:22.979Z,101483.88
2022-10-31T10:04:03.456Z,101479.56
2022-10-31T10:06:56.903Z,101482.19
2022-10-31T10:09:45.754Z,101480.16
2022-10-31T10:13:30.015Z,101478.84
2022-10-31T10:16:11.384Z,101474.13
2022-10-31T10:18:49.092Z,101480.34
2022-10-31T10:21:34.104Z,101479.75
2022-10-31T10:24:22.850Z,101468.69
2022-10-31T10:27:09.764Z,101471.13
2022-10-31T10:29:44.825Z,101469.34
2022-10-31T10:32:19.928Z,101466.56
2022-10-31T10:34:51.475Z,101464.38
2022-10-31T10:37:38.711Z,101471.38
2022-10-31T10:40:16.069Z,101475.31
2022-10-31T10:43:04.520Z,101460.69
2022-10-31T10:45:53.458Z,101463.47
2022-10-31T10:48:34.180Z,101456.75
2022-10-31T10:51:03.702Z,101449.41
2022-10-31T10:54:03.225Z,101444.69
2022-10-31T10:56:47.133Z,101456.50
2022-10-31T10:59:18.831Z,101459.53
2022-10-31T11:01:50.920Z,101450.09
2022-10-31T11:04:29.980Z,101445.41
2022-10-31T11:07:02.914Z,101444.31
2022-10-31T11:09:31.142Z,101442.91
2022-10-31T11:12:01.024Z,101442.78
2022-10-31T11:14:29.563Z,101446.63
2022-10-31T11:17:19.736Z,101436.56
2022-10-31T11:19:47.584Z,101427.66
2022-10-31T11:22:18.981Z,101435.06
2022-10-31T11:24:47.910Z,101422.34
2022-10-31T11:27:21.808Z,101423.84
2022-10-31T11:29:49.665Z,101419.22
2022-10-31T11:32:22.729Z,101423.16
2022-10-31T11:34:54.511Z,101415.41
2022-10-31T11:37:24.889Z,101411.84
2022-10-31T11:39:56.084Z,101407.53
2022-10-31T11:42:28.772Z,101403.19
2022-10-31T11:44:58.197Z,101408.00
2022-10-31T11:47:29.854Z,101404.44
2022-10-31T11:49:59.651Z,101393.97
2022-10-31T11:52:30.498Z,101392.84
2022-10-31T11:55:01.555Z,101392.72
2022-10-31T11:57:32.285Z,101386.88
2022-10-31T12:00:02.161Z,101395.53
2022-10-31T12:02:40.020Z,101388.34
2022-10-31T12:05:13.720Z,101398.19
2022-10-31T12:07:41.579Z,101391.59
2022-10-31T12:10:13.476Z,101381.84
2022-10-31T12:13:04.962Z,101377.84
2022-10-31T12:15:35.151Z,101374.97
2022-10-31T12:18:20.227Z,101362.56
2022-10-31T12:20:59.882Z,101365.06
2022-10-31T12:23:37.484Z,101367.03
2022-10-31T12:26:17.078Z,101365.91
2022-10-31T12:29:02.500Z,101374.50
2022-10-31T12:31:44.507Z,101358.22
2022-10-31T12:34:55.650Z,101367.88
2022-10-31T12:37:41.430Z,101357.19
2022-10-31T12:40:27.476Z,101344.78
2022-10-31T12:43:09.598Z,101349.78
2022-10-31T12:45:55.539Z,101351.84
2022-10-31T12:48:40.031Z,101348.34
2022-10-31T12:51:13.644Z,101338.78
2022-10-31T12:53:55.151Z,101332.56
2022-10-31T12:56:46.224Z,101336.66
2022-10-31T12:59:21.255Z,101335.66
2022-10-31T13:01:58.284Z,101324.50
2022-10-31T13:04:42.774Z,101326.84
2022-10-31T13:07:15.230Z,101320.34
2022-10-31T13:09:49.884Z,101312.88
2022-10-31T13:12:21.043Z,101310.06
2022-10-31T13:14:54.271Z,101308.31
2022-10-31T13:17:31.403Z,101300.44
2022-10-31T13:20:14.491Z,101290.25
2022-10-31T13:22:46.054Z,101283.50
2022-10-31T13:25:18.389Z,101286.53
2022-10-31T13:28:02.375Z,101284.09
2022-10-31T13:30:34.217Z,101279.91
2022-10-31T13:33:08.055Z,101249.53
2022-10-31T13:35:49.648Z,101274.94
2022-10-31T13:38:25.500Z,101259.56
2022-10-31T13:41:00.391Z,101262.84
2022-10-31T13:43:36.338Z,101255.47
2022-10-31T13:46:25.643Z,101250.38
2022-10-31T13:48:54.872Z,101246.81
2022-10-31T13:51:29.299Z,101243.91
2022-10-31T13:54:03.045Z,101240.38
2022-10-31T13:56:34.019Z,101235.06
2022-10-31T13:59:20.520Z,101229.59
2022-10-31T14:01:51.996Z,101230.28
2022-10-31T14:04:25.703Z,101224.72
2022-10-31T14:06:58.156Z,101218.59
2022-10-31T14:09:32.956Z,101226.88
2022-10-31T14:12:04.967Z,101217.59
2022-10-31T14:14:47.683Z,101208.19
2022-10-31T14:17:24.369Z,101209.84
2022-10-31T14:20:01.897Z,101194.84
2022-10-31T14:22:38.684Z,101215.78
2022-10-31T14:25:31.691Z,101209.09
2022-10-31T14:28:00.917Z,101200.59
2022-10-31T14:30:31.189Z,101205.19
2022-10-31T14:33:01.517Z,101214.00
2022-10-31T14:35:53.661Z,101204.25
2022-10-31T14:38:42.910Z,101201.31
2022-10-31T14:41:30.704Z,101212.78
2022-10-31T14:44:45.719Z,101213.00
2022-10-31T14:47:26.352Z,101212.00
2022-10-31T14:50:26.478Z,101210.63
2022-10-31T14:52:59.326Z,101208.38
2022-10-31T14:55:28.786Z,101202.50
2022-10-31T14:58:01.734Z,101191.97
2022-10-31T15:00:31.435Z,101193.28
2022-10-31T15:03:08.068Z,101198.84
2022-10-31T15:05:42.798Z,101196.59
2022-10-31T15:08:28.877Z,101186.22
2022-10-31T15:10:56.925Z,101185.19
2022-10-31T15:13:24.882Z,101184.41
2022-10-31T15:15:56.565Z,101180.38
2022-10-31T15:18:27.834Z,101183.94
2022-10-31T15:20:58.656Z,101174.06
2022-10-31T15:23:30.113Z,101176.09
2022-10-31T15:26:02.537Z,101179.25
2022-10-31T15:28:32.217Z,101177.22
2022-10-31T15:31:02.279Z,101170.75
2022-10-31T15:33:38.737Z,101162.13
2022-10-31T15:36:08.721Z,101159.22
2022-10-31T15:38:37.956Z,101146.09
2022-10-31T15:41:08.260Z,101144.09
2022-10-31T15:43:39.196Z,101141.16
2022-10-31T15:46:11.253Z,101133.03
2022-10-31T15:48:41.560Z,101133.53
2022-10-31T15:51:09.600Z,101132.63
2022-10-31T15:53:45.759Z,101126.19
2022-10-31T15:56:21.252Z,101124.78
2022-10-31T15:58:52.517Z,101123.78
2022-10-31T16:01:27.737Z,101116.94
2022-10-31T16:04:07.395Z,101117.69
2022-10-31T16:06:44.448Z,101119.97
2022-10-31T16:09:24.293Z,101129.84
2022-10-31T16:11:57.086Z,101129.59
2022-10-31T16:14:27.812Z,101109.03
2022-10-31T16:16:58.040Z,101126.78
2022-10-31T16:19:30.610Z,101128.84
2022-10-31T16:22:07.075Z,101127.81
2022-10-31T16:24:46.623Z,101119.19
2022-10-31T16:27:24.347Z,101118.41
2022-10-31T16:29:52.269Z,101126.00
2022-10-31T16:32:35.209Z,101111.47
2022-10-31T16:35:19.460Z,101120.31
2022-10-31T16:37:47.314Z,101118.03
2022-10-31T16:40:17.497Z,101101.44
2022-10-31T16:42:56.147Z,101114.16
2022-10-31T16:45:29.656Z,101104.00
2022-10-31T16:48:05.045Z,101108.06
2022-10-31T16:50:32.831Z,101091.44
2022-10-31T16:53:13.259Z,101103.09
2022-10-31T16:55:47.963Z,101100.44
2022-10-31T16:58:20.061Z,101101.31
2022-10-31T17:00:48.033Z,101098.66
2022-10-31T17:03:15.845Z,101092.69
2022-10-31T17:05:44.050Z,101095.22
2022-10-31T17:08:12.125Z,101078.13
2022-10-31T17:10:40.569Z,101074.59
2022-10-31T17:13:20.726Z,101064.81
2022-10-31T17:15:51.829Z,101064.16
2022-10-31T17:18:24.449Z,101056.56
2022-10-31T17:20:57.889Z,101060.63
2022-10-31T17:23:26.247Z,101069.13
2022-10-31T17:25:54.083Z,101080.28
2022-10-31T17:28:23.267Z,101076.22
2022-10-31T17:30:51.125Z,101073.06
2022-10-31T17:33:19.165Z,101073.06
2022-10-31T17:35:47.662Z,101066.47
2022-10-31T17:38:15.443Z,101073.06
2022-10-31T17:40:43.234Z,101081.41
2022-10-31T17:43:26.308Z,101078.88
2022-10-31T17:45:55.621Z,101080.66
2022-10-31T17:48:23.661Z,101088.50
2022-10-31T17:50:51.805Z,101085.25
2022-10-31T17:53:19.651Z,101089.03
2022-10-31T17:55:47.575Z,101070.03
2022-10-31T17:58:24.789Z,101070.00
2022-10-31T18:00:56.779Z,101057.34
2022-10-31T18:03:29.364Z,101048.97
2022-10-31T18:06:00.210Z,101045.44
2022-10-31T18:08:28.532Z,101042.91
2022-10-31T18:11:00.391Z,101042.78
2022-10-31T18:13:28.792Z,101023.50
2022-10-31T18:15:56.767Z,101035.78
2022-10-31T18:18:32.048Z,101009.44
2022-10-31T18:20:59.875Z,101020.97
2022-10-31T18:23:27.728Z,101012.47
2022-10-31T18:25:55.979Z,101013.09
2022-10-31T18:28:23.924Z,101005.38
2022-10-31T18:30:51.941Z,101011.22
2022-10-31T18:33:19.890Z,101029.81
2022-10-31T18:35:49.185Z,101034.78
2022-10-31T18:38:16.962Z,101033.00
2022-10-31T18:40:44.806Z,101044.91
2022-10-31T18:43:12.592Z,101038.19
2022-10-31T18:45:47.149Z,101026.53
2022-10-31T18:48:18.241Z,101032.50
2022-10-31T18:50:48.996Z,101036.69
2022-10-31T18:53:20.097Z,101015.78
2022-10-31T18:55:50.249Z,101006.25
2022-10-31T18:58:18.516Z,100995.00
2022-10-31T19:00:52.424Z,100998.03
2022-10-31T19:03:26.159Z,101012.22
2022-10-31T19:05:57.106Z,101000.16
2022-10-31T19:08:29.465Z,100993.34
2022-10-31T19:10:57.229Z,100994.75
2022-10-31T19:13:24.967Z,100986.88
2022-10-31T19:15:52.748Z,100987.63
2022-10-31T19:18:20.647Z,100977.13
2022-10-31T19:20:48.528Z,100967.47
2022-10-31T19:23:17.464Z,100962.78
2022-10-31T19:25:59.360Z,100965.81
2022-10-31T19:28:27.554Z,100959.75
2022-10-31T19:30:55.614Z,100959.50
2022-10-31T19:33:23.494Z,100959.25
2022-10-31T19:35:51.274Z,100953.78
2022-10-31T19:38:19.058Z,100952.66
2022-10-31T19:40:47.802Z,100948.09
2022-10-31T19:43:20.207Z,100939.97
2022-10-31T19:45:57.324Z,100934.63
2022-10-31T19:48:25.734Z,100936.03
2022-10-31T19:50:58.532Z,100933.34
2022-10-31T19:53:31.956Z,100922.47
2022-10-31T19:56:00.811Z,100911.56
2022-10-31T19:58:33.257Z,100910.06
2022-10-31T20:01:06.951Z,100907.66
2022-10-31T20:03:34.867Z,100903.63
2022-10-31T20:06:07.291Z,100898.84
2022-10-31T20:08:39.476Z,100903.13
2022-10-31T20:11:07.743Z,100900.72
2022-10-31T20:13:38.064Z,100899.97
2022-10-31T20:16:08.773Z,100889.72
2022-10-31T20:18:37.659Z,100891.88
2022-10-31T20:21:07.565Z,100895.66
2022-10-31T20:23:36.391Z,100884.66
2022-10-31T20:26:05.099Z,100893.91
2022-10-31T20:28:40.036Z,100878.72
2022-10-31T20:31:10.752Z,100872.50
2022-10-31T20:33:42.078Z,100861.22
2022-10-31T20:36:11.453Z,100867.56
2022-10-31T20:38:39.982Z,100864.78
2022-10-31T20:41:10.956Z,100842.69
2022-10-31T20:43:42.940Z,100855.00
2022-10-31T20:46:13.201Z,100850.06
2022-10-31T20:48:41.279Z,100855.75
2022-10-31T20:51:13.718Z,100857.38
2022-10-31T20:53:41.572Z,100857.25
2022-10-31T20:56:11.604Z,100875.88
2022-10-31T20:58:42.427Z,100868.00
2022-10-31T21:01:14.814Z,100875.59
2022-10-31T21:03:43.386Z,100867.03
2022-10-31T21:06:12.126Z,100863.50
2022-10-31T21:08:40.656Z,100868.41
2022-10-31T21:11:13.760Z,100872.59
2022-10-31T21:13:47.747Z,100867.66
2022-10-31T21:16:20.477Z,100863.22
2022-10-31T21:18:49.820Z,100858.03
2022-10-31T21:21:24.121Z,100868.16
2022-10-31T21:23:56.379Z,100867.25
2022-10-31T21:26:30.064Z,100867.75
2022-10-31T21:29:01.943Z,100886.47
2022-10-31T21:31:30.263Z,100868.78
2022-10-31T21:33:58.086Z,100864.38
2022-10-31T21:36:26.678Z,100862.44
2022-10-31T21:38:55.905Z,100847.03
2022-10-31T21:41:24.701Z,100850.06
2022-10-31T21:43:55.174Z,100838.13
2022-10-31T21:46:26.218Z,100823.56
2022-10-31T21:48:54.376Z,100814.72
2022-10-31T21:51:23.904Z,100797.88
2022-10-31T21:54:09.906Z,100801.81
2022-10-31T21:56:38.285Z,100793.94
2022-10-31T21:59:06.367Z,100830.41
2022-10-31T22:01:38.443Z,100823.31
2022-10-31T22:04:12.455Z,100829.59
2022-10-31T22:06:42.539Z,100814.81
2022-10-31T22:09:19.690Z,100816.97
2022-10-31T22:11:48.250Z,100814.03
2022-10-31T22:14:16.659Z,100815.91
2022-10-31T22:16:46.029Z,100815.00
2022-10-31T22:19:16.679Z,100812.09
2022-10-31T22:21:47.440Z,100810.31
2022-10-31T22:24:16.505Z,100800.81
2022-10-31T22:26:45.932Z,100795.50
2022-10-31T22:29:15.601Z,100793.47
2022-10-31T22:31:57.246Z,100788.53
2022-10-31T22:34:28.765Z,100791.44
2022-10-31T22:36:56.849Z,100782.09
2022-10-31T22:39:24.703Z,100781.97
2022-10-31T22:41:52.449Z,100772.72
2022-10-31T22:44:20.848Z,100774.50
2022-10-31T22:46:52.354Z,100777.78
2022-10-31T22:49:20.089Z,100771.84
2022-10-31T22:51:51.556Z,100771.97
2022-10-31T22:54:20.179Z,100763.50
2022-10-31T22:56:50.758Z,100767.66
2022-10-31T22:59:19.095Z,100770.84
2022-10-31T23:01:46.939Z,100760.56
2022-10-31T23:04:17.232Z,100769.81
2022-10-31T23:06:51.000Z,100769.06
2022-10-31T23:09:18.951Z,100747.50
2022-10-31T23:11:49.896Z,100780.66
2022-10-31T23:14:21.143Z,100781.31
2022-10-31T23:16:57.447Z,100769.28
2022-10-31T23:19:28.422Z,100784.44
2022-10-31T23:21:59.774Z,100776.88
2022-10-31T23:24:36.575Z,100772.84
2022-10-31T23:27:06.679Z,100764.66
2022-10-31T23:29:39.375Z,100772.22
2022-10-31T23:32:10.759Z,100756.16
2022-10-31T23:34:39.918Z,100761.34
2022-10-31T23:37:15.286Z,100750.63
2022-10-31T23:39:43.525Z,100764.41
2022-10-31T23:42:11.657Z,100761.38
2022-10-31T23:44:39.374Z,100756.56
2022-10-31T23:47:07.886Z,100746.47
2022-10-31T23:49:35.987Z,100752.00
2022-10-31T23:52:06.056Z,100734.44
2022-10-31T23:54:34.188Z,100738.19
2022-10-31T23:57:02.731Z,100744.06
2022-10-31T23:59:31.116Z,100738.00
